Time;durP1;ratioP1;P1;durP2;ratioP2;P2;SDS_P1;SDS_P2;PMS_P1;PMS_P2;Temp;Humidity;BMP_temperature;BMP_pressure;BME280_temperature;BME280_humidity;BME280_pressure;Samples;Min_cycle;Max_cycle;Signal;HPM_P1;HPM_P2
2022/10/15 00:00:52;;;;;;;18.80;15.15;;;;;;;13.33;93.48;100178.31;5027574;28;20038;-81
2022/10/15 00:03:19;;;;;;;23.15;16.73;;;;;;;13.34;93.90;100177.34;5028569;28;20097;-82
2022/10/15 00:05:47;;;;;;;25.05;16.52;;;;;;;13.32;93.87;100177.44;4998314;28;20073;-83
2022/10/15 00:08:14;;;;;;;21.95;15.77;;;;;;;13.32;93.64;100168.66;5017697;28;20044;-81
2022/10/15 00:10:41;;;;;;;26.73;17.45;;;;;;;13.32;94.62;100164.22;5018148;28;20077;-82
2022/10/15 00:13:09;;;;;;;26.77;17.70;;;;;;;13.34;95.02;100162.31;5025274;28;20060;-82
2022/10/15 00:15:36;;;;;;;19.77;16.42;;;;;;;13.35;95.85;100161.34;5023617;28;20050;-82
2022/10/15 00:18:04;;;;;;;24.95;17.25;;;;;;;13.32;95.61;100161.56;5020128;28;20054;-82
2022/10/15 00:20:31;;;;;;;23.15;17.23;;;;;;;13.31;96.91;100156.41;5003877;28;20077;-82
2022/10/15 00:22:59;;;;;;;27.25;18.48;;;;;;;13.23;97.63;100146.44;5001266;28;20049;-82
2022/10/15 00:25:27;;;;;;;24.85;17.52;;;;;;;13.23;98.54;100138.50;5019453;28;20045;-80
2022/10/15 00:27:54;;;;;;;21.95;16.80;;;;;;;13.23;98.53;100143.78;5017429;28;20088;-80
2022/10/15 00:30:22;;;;;;;23.13;16.77;;;;;;;13.23;98.65;100140.31;5012204;28;20073;-81
2022/10/15 00:32:49;;;;;;;24.55;18.35;;;;;;;13.25;99.15;100139.25;5016165;28;20053;-81
2022/10/15 00:35:17;;;;;;;22.75;16.90;;;;;;;13.25;99.50;100136.59;5021678;28;20787;-81
2022/10/15 00:37:44;;;;;;;24.33;16.95;;;;;;;13.25;99.52;100135.75;4990061;28;20068;-83
2022/10/15 00:40:14;;;;;;;21.25;17.00;;;;;;;13.23;100.00;100135.03;5020712;28;20484;-81
2022/10/15 00:42:42;;;;;;;24.35;16.50;;;;;;;13.22;100.00;100126.25;5010483;28;20064;-82
2022/10/15 00:45:14;;;;;;;22.48;17.92;;;;;;;13.19;100.00;100129.09;5007010;28;20058;-82
2022/10/15 00:47:47;;;;;;;21.77;15.93;;;;;;;13.17;100.00;100129.22;5007006;28;20037;-82
2022/10/15 00:50:24;;;;;;;25.15;17.15;;;;;;;13.16;100.00;100135.47;5022201;28;20065;-83
2022/10/15 00:53:02;;;;;;;23.25;16.88;;;;;;;13.17;100.00;100131.88;5008524;28;20042;-82
2022/10/15 00:55:32;;;;;;;24.58;17.55;;;;;;;13.19;100.00;100129.09;5003653;28;20026;-81
2022/10/15 00:58:02;;;;;;;21.23;16.08;;;;;;;13.17;100.00;100129.22;5018429;28;20048;-82
2022/10/15 01:00:30;;;;;;;22.30;16.88;;;;;;;13.18;100.00;100117.69;4983372;28;20050;-83
2022/10/15 01:02:58;;;;;;;23.25;17.10;;;;;;;13.18;100.00;100116.84;5018814;28;20111;-82
2022/10/15 01:05:26;;;;;;;20.50;16.30;;;;;;;13.19;100.00;100107.94;5024116;28;20118;-82
2022/10/15 01:07:53;;;;;;;21.83;16.17;;;;;;;13.22;100.00;100107.75;5012042;28;20117;-82
2022/10/15 01:10:21;;;;;;;22.58;16.95;;;;;;;13.21;100.00;100102.56;5020557;28;20050;-83
2022/10/15 01:13:11;;;;;;;21.23;16.05;;;;;;;13.20;100.00;100100.88;4985635;28;20041;-83
2022/10/15 01:16:22;;;;;;;22.20;16.77;;;;;;;13.21;100.00;100095.47;4997771;28;20066;-83
2022/10/15 01:19:03;;;;;;;19.92;15.35;;;;;;;13.20;100.00;100092.97;5014381;28;20149;-82
2022/10/15 01:21:49;;;;;;;21.15;16.42;;;;;;;13.19;100.00;100084.16;5008329;28;20054;-82
2022/10/15 01:24:38;;;;;;;20.63;16.05;;;;;;;13.18;100.00;100083.31;5017233;28;20123;-80
2022/10/15 01:27:27;;;;;;;20.75;15.73;;;;;;;13.16;100.00;100082.63;5026059;28;20133;-80
2022/10/15 01:30:20;;;;;;;17.63;14.48;;;;;;;13.12;100.00;100077.69;5011121;28;20063;-79
2022/10/15 01:32:53;;;;;;;20.13;16.65;;;;;;;13.14;100.00;100071.31;5018296;28;20049;-83
2022/10/15 01:35:25;;;;;;;22.10;15.60;;;;;;;13.18;100.00;100083.31;5013475;28;20053;-81
2022/10/15 01:38:19;;;;;;;24.52;17.63;;;;;;;13.16;100.00;100077.34;4994029;28;20062;-81
2022/10/15 01:40:59;;;;;;;24.30;16.85;;;;;;;13.13;100.00;100072.28;4994556;28;20050;-81
2022/10/15 01:44:05;;;;;;;22.30;16.35;;;;;;;13.14;100.00;100068.66;5020909;28;20116;-81
2022/10/15 01:46:54;;;;;;;21.98;16.60;;;;;;;13.13;100.00;100071.44;5011315;28;20061;-82
2022/10/15 01:49:25;;;;;;;26.73;18.55;;;;;;;13.12;100.00;100060.03;5013144;28;20100;-82
2022/10/15 01:51:53;;;;;;;20.58;16.05;;;;;;;13.13;100.00;100063.50;5016881;28;20117;-81
2022/10/15 01:54:23;;;;;;;24.15;15.85;;;;;;;13.14;100.00;100060.72;5014659;28;20073;-79
2022/10/15 01:56:51;;;;;;;20.75;16.17;;;;;;;13.14;100.00;100062.53;4995760;28;20097;-80
2022/10/15 01:59:21;;;;;;;23.25;17.27;;;;;;;13.15;100.00;100057.16;5010445;28;20065;-80
2022/10/15 02:01:49;;;;;;;22.58;16.73;;;;;;;13.14;100.00;100051.97;5007094;28;20090;-81
2022/10/15 02:04:22;;;;;;;22.80;16.63;;;;;;;13.14;100.00;100057.25;5005472;28;20471;-82
2022/10/15 02:07:13;;;;;;;21.88;16.55;;;;;;;13.16;100.00;100048.25;5007635;28;20045;-81
2022/10/15 02:10:03;;;;;;;24.23;18.30;;;;;;;13.16;100.00;100050.91;5001277;28;20120;-83
2022/10/15 02:12:41;;;;;;;24.08;16.52;;;;;;;13.12;100.00;100049.47;5013105;28;20069;-81
2022/10/15 02:15:35;;;;;;;22.67;16.50;;;;;;;13.13;100.00;100043.22;5000639;28;20194;-83
2022/10/15 02:18:18;;;;;;;22.02;16.88;;;;;;;13.17;100.00;100039.34;5004682;28;20061;-82
2022/10/15 02:21:46;;;;;;;24.40;16.92;;;;;;;13.16;100.00;100037.69;5000289;28;20054;-80
2022/10/15 02:24:23;;;;;;;21.00;16.85;;;;;;;13.17;100.00;100034.06;5015221;28;20041;-80
2022/10/15 02:26:53;;;;;;;23.98;17.08;;;;;;;13.13;100.00;100027.34;5000760;28;20054;-81
2022/10/15 02:29:22;;;;;;;21.20;16.25;;;;;;;13.13;100.00;100035.28;5028091;28;20034;-80
2022/10/15 02:31:51;;;;;;;24.67;16.65;;;;;;;13.14;100.00;100033.47;5029597;28;20125;-83
2022/10/15 02:34:20;;;;;;;21.75;16.75;;;;;;;13.11;100.00;100033.72;5005826;28;20049;-81
2022/10/15 02:36:48;;;;;;;23.30;16.52;;;;;;;13.12;100.00;100030.97;5028650;28;20075;-80
2022/10/15 02:39:21;;;;;;;22.23;16.15;;;;;;;13.15;100.00;100030.72;5051669;28;20054;-80
2022/10/15 02:41:49;;;;;;;21.88;16.55;;;;;;;13.14;100.00;100030.81;5032821;28;20120;-81
2022/10/15 02:44:17;;;;;;;23.88;17.63;;;;;;;13.15;100.00;100028.09;5011596;28;20156;-82
2022/10/15 02:46:44;;;;;;;21.40;16.15;;;;;;;13.17;100.00;100030.59;5026205;28;20088;-82
2022/10/15 02:49:12;;;;;;;20.95;16.02;;;;;;;13.16;100.00;100021.84;5012759;28;20050;-80
2022/10/15 02:51:39;;;;;;;21.05;16.05;;;;;;;13.14;100.00;100026.38;4994686;28;20459;-81
2022/10/15 02:54:07;;;;;;;25.77;16.85;;;;;;;13.13;100.00;100016.78;5009787;28;20541;-82
2022/10/15 02:56:34;;;;;;;19.45;15.88;;;;;;;13.14;100.00;100018.44;4987886;28;20045;-81
2022/10/15 02:59:04;;;;;;;24.55;16.65;;;;;;;13.16;100.00;100015.72;5014258;28;20115;-82
2022/10/15 03:01:33;;;;;;;21.27;16.83;;;;;;;13.20;100.00;100018.94;5023648;28;20382;-82
2022/10/15 03:04:01;;;;;;;23.45;15.95;;;;;;;13.20;100.00;100017.16;5024268;28;20030;-80
2022/10/15 03:06:28;;;;;;;28.92;18.30;;;;;;;13.21;100.00;100020.63;5036288;28;20046;-83
2022/10/15 03:08:55;;;;;;;23.23;16.77;;;;;;;13.18;100.00;100019.88;5002481;28;20050;-80
2022/10/15 03:11:23;;;;;;;22.05;16.60;;;;;;;13.19;100.00;100015.44;5032670;28;20082;-81
2022/10/15 03:13:50;;;;;;;19.67;15.73;;;;;;;13.19;100.00;100012.81;5013692;28;20050;-80
2022/10/15 03:16:18;;;;;;;22.95;16.88;;;;;;;13.22;100.00;100014.38;5016797;28;20050;-80
2022/10/15 03:18:46;;;;;;;21.77;15.98;;;;;;;13.22;100.00;100014.38;4995295;28;20057;-81
2022/10/15 03:21:13;;;;;;;22.60;15.35;;;;;;;13.23;100.00;100016.06;5008698;28;20178;-81
2022/10/15 03:23:41;;;;;;;19.33;15.30;;;;;;;13.23;100.00;100014.28;5041708;28;20056;-82
2022/10/15 03:26:08;;;;;;;21.92;17.10;;;;;;;13.26;100.00;100014.03;5012799;28;20050;-82
2022/10/15 03:28:36;;;;;;;21.05;15.13;;;;;;;13.26;100.00;100007.91;5001551;28;20252;-82
2022/10/15 03:31:03;;;;;;;18.38;15.52;;;;;;;13.23;100.00;100000.22;5011655;28;20057;-84
2022/10/15 03:33:31;;;;;;;23.60;16.17;;;;;;;13.21;100.00;100000.31;5029916;28;20495;-82
2022/10/15 03:35:59;;;;;;;20.67;16.73;;;;;;;13.21;100.00;99994.19;5026183;28;20064;-82
2022/10/15 03:38:26;;;;;;;22.55;16.60;;;;;;;13.23;100.00;99994.94;5023820;28;20054;-80
2022/10/15 03:40:54;;;;;;;23.23;16.33;;;;;;;13.20;100.00;99987.25;5019269;28;20071;-80
2022/10/15 03:43:25;;;;;;;22.30;15.23;;;;;;;13.17;100.00;99981.22;5032389;28;20068;-81
2022/10/15 03:45:52;;;;;;;21.35;15.70;;;;;;;13.21;100.00;99988.91;5029376;28;20632;-81
2022/10/15 03:48:21;;;;;;;20.52;16.15;;;;;;;13.18;100.00;99993.47;5026542;28;20072;-82
2022/10/15 03:50:48;;;;;;;19.92;16.23;;;;;;;13.16;100.00;99998.03;5020748;28;20049;-80
2022/10/15 03:53:16;;;;;;;20.60;14.73;;;;;;;13.17;100.00;99996.25;5021111;28;20105;-81
2022/10/15 03:55:43;;;;;;;21.60;16.23;;;;;;;13.17;100.00;99994.44;5042787;28;20064;-82
2022/10/15 03:58:11;;;;;;;17.75;14.82;;;;;;;13.17;100.00;99993.59;5024577;28;20054;-82
2022/10/15 04:00:43;;;;;;;23.60;15.95;;;;;;;13.18;100.00;99992.63;4993690;28;20114;-80
2022/10/15 04:03:10;;;;;;;19.80;14.43;;;;;;;13.16;100.00;99995.41;5021156;28;20057;-81
2022/10/15 04:05:38;;;;;;;21.42;16.60;;;;;;;13.18;100.00;100000.56;5012771;28;20149;-83
2022/10/15 04:08:05;;;;;;;21.50;16.40;;;;;;;13.22;100.00;99998.50;5022578;28;20057;-81
2022/10/15 04:10:33;;;;;;;19.83;15.88;;;;;;;13.22;100.00;99991.44;5032083;28;20106;-80
2022/10/15 04:13:00;;;;;;;19.60;16.02;;;;;;;13.23;100.00;99993.13;5014029;28;20051;-84
2022/10/15 04:15:28;;;;;;;20.58;15.55;;;;;;;13.24;100.00;99988.69;4998917;28;20046;-82
2022/10/15 04:17:55;;;;;;;17.40;14.75;;;;;;;13.23;100.00;99998.41;5012494;28;20054;-79
2022/10/15 04:20:23;;;;;;;20.42;15.68;;;;;;;13.19;100.00;100002.22;5043945;28;20068;-80
2022/10/15 04:22:50;;;;;;;23.45;17.05;;;;;;;13.14;100.00;99997.31;5028840;28;20113;-80
2022/10/15 04:25:18;;;;;;;20.60;16.90;;;;;;;13.16;100.00;99994.56;5044439;28;20064;-84
2022/10/15 04:27:45;;;;;;;17.70;14.70;;;;;;;13.16;100.00;100000.69;5022837;28;20064;-82
2022/10/15 04:30:13;;;;;;;21.38;15.82;;;;;;;13.18;100.00;100000.56;5022531;28;20108;-81
2022/10/15 04:32:40;;;;;;;20.38;15.20;;;;;;;13.19;100.00;100004.88;5014655;28;20046;-81
2022/10/15 04:35:08;;;;;;;19.02;15.75;;;;;;;13.21;100.00;100000.31;5006680;28;20047;-82
2022/10/15 04:37:36;;;;;;;19.05;14.40;;;;;;;13.24;100.00;100001.88;5003735;28;20050;-81
2022/10/15 04:40:04;;;;;;;19.58;15.25;;;;;;;13.24;100.00;100007.19;5003622;28;20042;-83
2022/10/15 04:42:32;;;;;;;27.10;17.13;;;;;;;13.24;100.00;100007.19;5026594;28;20496;-82
2022/10/15 04:44:59;;;;;;;17.30;13.98;;;;;;;13.25;100.00;100012.38;5017012;28;20065;-83
2022/10/15 04:47:27;;;;;;;20.10;15.38;;;;;;;13.23;100.00;99997.56;5015999;28;20049;-82
2022/10/15 04:49:54;;;;;;;23.40;16.80;;;;;;;13.25;100.00;100015.00;5032747;28;20095;-82
2022/10/15 04:52:22;;;;;;;19.52;15.23;;;;;;;13.26;100.00;100010.56;5019883;28;20049;-81
2022/10/15 04:54:49;;;;;;;20.75;15.50;;;;;;;13.26;100.00;100007.91;5025952;28;20080;-82
2022/10/15 04:57:17;;;;;;;19.35;14.77;;;;;;;13.24;100.00;100007.19;5001138;28;20050;-82
2022/10/15 04:59:44;;;;;;;20.33;14.60;;;;;;;13.26;100.00;100007.91;5011859;28;20073;-82
2022/10/15 05:02:12;;;;;;;20.15;15.35;;;;;;;13.26;100.00;100008.75;4980045;28;20042;-82
2022/10/15 05:04:39;;;;;;;21.85;15.35;;;;;;;13.25;100.00;100012.38;5005122;28;20058;-81
2022/10/15 05:07:07;;;;;;;16.63;13.98;;;;;;;13.28;100.00;100013.91;5005745;28;20058;-82
2022/10/15 05:09:35;;;;;;;19.90;14.88;;;;;;;13.28;100.00;100016.53;4991584;28;20073;-82
2022/10/15 05:12:03;;;;;;;20.83;15.40;;;;;;;13.30;100.00;100006.72;5000945;28;20050;-81
2022/10/15 05:14:31;;;;;;;18.40;15.52;;;;;;;13.27;100.00;100004.31;5018289;28;20034;-81
2022/10/15 05:16:58;;;;;;;18.33;14.85;;;;;;;13.26;100.00;100013.19;5011345;28;20476;-81
2022/10/15 05:19:26;;;;;;;21.50;15.00;;;;;;;13.20;100.00;100008.38;5025226;28;20563;-79
2022/10/15 05:21:54;;;;;;;21.00;15.52;;;;;;;13.20;100.00;100003.09;5034468;28;20117;-80
2022/10/15 05:24:21;;;;;;;18.55;13.88;;;;;;;13.21;100.00;100008.25;5026962;28;20033;-80
2022/10/15 05:26:48;;;;;;;19.02;14.95;;;;;;;13.24;100.00;100004.53;4998917;28;20053;-81
2022/10/15 05:29:16;;;;;;;21.38;16.38;;;;;;;13.19;100.00;100007.50;5032096;28;20038;-83
2022/10/15 05:31:43;;;;;;;17.17;14.40;;;;;;;13.13;100.00;100005.38;5007465;28;20563;-82
2022/10/15 05:34:11;;;;;;;23.42;15.75;;;;;;;13.17;100.00;100012.09;5016956;28;20451;-81
2022/10/15 05:36:39;;;;;;;17.88;14.55;;;;;;;13.18;100.00;100013.75;5024948;28;20054;-81
2022/10/15 05:39:09;;;;;;;21.33;14.52;;;;;;;13.20;100.00;100022.44;4988283;28;20058;-82
2022/10/15 05:41:36;;;;;;;16.98;12.25;;;;;;;13.22;100.00;100017.00;4983110;28;20042;-84
2022/10/15 05:44:04;;;;;;;18.58;14.07;;;;;;;13.22;100.00;100023.16;5004125;28;20116;-81
2022/10/15 05:46:32;;;;;;;19.90;15.45;;;;;;;13.26;100.00;100021.13;5015574;28;20493;-83
2022/10/15 05:48:59;;;;;;;16.42;13.75;;;;;;;13.21;100.00;100024.09;5016591;28;20056;-83
2022/10/15 05:51:27;;;;;;;20.30;14.02;;;;;;;13.22;100.00;100031.09;5010334;28;20097;-82
2022/10/15 05:53:55;;;;;;;17.52;13.65;;;;;;;13.20;100.00;100029.53;5006268;28;20099;-82
2022/10/15 05:56:23;;;;;;;17.58;13.85;;;;;;;13.23;100.00;100031.94;5007126;28;20563;-81
2022/10/15 05:58:51;;;;;;;17.60;12.80;;;;;;;13.23;100.00;100031.94;4996958;28;20559;-81
2022/10/15 06:01:19;;;;;;;16.83;13.88;;;;;;;13.21;100.00;100032.03;5003721;28;20060;-81
2022/10/15 06:03:46;;;;;;;14.57;12.23;;;;;;;13.23;100.00;100034.56;4987878;28;20048;-81
2022/10/15 06:06:19;;;;;;;16.52;13.60;;;;;;;13.26;100.00;100042.28;5000323;28;20061;-80
2022/10/15 06:08:47;;;;;;;18.50;12.68;;;;;;;13.28;100.00;100048.25;4992055;28;20477;-81
2022/10/15 06:11:16;;;;;;;17.92;12.27;;;;;;;13.32;100.00;100049.72;5034940;28;20038;-81
2022/10/15 06:13:45;;;;;;;19.85;13.95;;;;;;;13.33;100.00;100049.59;5006361;28;20056;-82
2022/10/15 06:16:14;;;;;;;26.70;15.05;;;;;;;13.28;100.00;100054.38;5009078;28;20034;-82
2022/10/15 06:18:47;;;;;;;19.58;13.43;;;;;;;13.25;100.00;100054.66;5021188;28;20042;-81
2022/10/15 06:21:14;;;;;;;15.85;12.10;;;;;;;13.26;100.00;100055.50;5021786;28;20060;-81
2022/10/15 06:23:42;;;;;;;15.52;12.07;;;;;;;13.29;100.00;100055.25;5023469;28;20061;-81
2022/10/15 06:26:09;;;;;;;20.23;13.60;;;;;;;13.29;100.00;100060.53;5024319;28;20049;-82
2022/10/15 06:28:38;;;;;;;17.15;13.57;;;;;;;13.29;100.00;100065.84;4998753;28;20057;-82
2022/10/15 06:31:06;;;;;;;17.42;12.77;;;;;;;13.32;100.00;100060.28;5009995;28;20539;-82
2022/10/15 06:33:34;;;;;;;15.60;12.43;;;;;;;13.33;100.00;100059.34;4999933;28;20033;-82
2022/10/15 06:36:07;;;;;;;21.20;13.32;;;;;;;13.34;100.00;100053.09;5026950;28;20069;-82
2022/10/15 06:38:36;;;;;;;14.13;11.65;;;;;;;13.40;100.00;100063.16;5002011;28;20045;-82
2022/10/15 06:41:04;;;;;;;15.73;11.95;;;;;;;13.41;100.00;100062.19;5014621;28;20037;-81
2022/10/15 06:43:32;;;;;;;15.65;13.02;;;;;;;13.43;100.00;100073.50;5023997;28;20140;-81
2022/10/15 06:46:03;;;;;;;17.52;13.80;;;;;;;13.43;100.00;100069.06;5014200;28;20106;-81
2022/10/15 06:48:31;;;;;;;18.58;13.00;;;;;;;13.39;100.00;100072.91;4986434;28;20049;-82
2022/10/15 06:51:00;;;;;;;15.63;11.52;;;;;;;13.40;100.00;100068.44;4985431;28;20050;-81
2022/10/15 06:53:28;;;;;;;17.35;13.55;;;;;;;13.39;100.00;100069.41;4992079;28;20062;-81
2022/10/15 06:55:57;;;;;;;16.65;12.52;;;;;;;13.42;100.00;100077.13;5004082;28;20041;-82
2022/10/15 06:58:25;;;;;;;17.48;12.05;;;;;;;13.45;100.00;100076.03;4989858;28;20508;-82
2022/10/15 07:00:52;;;;;;;15.02;12.00;;;;;;;13.46;100.00;100075.03;5007340;28;20509;-81
2022/10/15 07:03:20;;;;;;;16.40;13.07;;;;;;;13.47;100.00;100088.16;5018242;28;20444;-82
2022/10/15 07:05:47;;;;;;;17.52;13.85;;;;;;;13.45;100.00;100087.44;5023792;28;20057;-83
2022/10/15 07:08:15;;;;;;;18.98;13.45;;;;;;;13.46;100.00;100094.41;5001748;28;20046;-82
2022/10/15 07:10:46;;;;;;;20.33;13.82;;;;;;;13.48;100.00;100103.06;5021080;28;20076;-82
2022/10/15 07:13:13;;;;;;;18.70;13.55;;;;;;;13.47;100.00;100101.38;5002129;28;20047;-82
2022/10/15 07:15:41;;;;;;;18.17;13.55;;;;;;;13.51;100.00;100107.25;5023039;28;20061;-82
2022/10/15 07:18:08;;;;;;;17.60;12.95;;;;;;;13.57;100.00;100112.06;5021680;28;20062;-83
2022/10/15 07:20:36;;;;;;;19.98;13.55;;;;;;;13.62;100.00;100116.03;5007335;28;20058;-82
2022/10/15 07:23:03;;;;;;;14.90;12.43;;;;;;;13.65;100.00;100122.88;5037681;28;20120;-81
2022/10/15 07:25:31;;;;;;;17.35;13.38;;;;;;;13.67;100.00;100126.22;5034629;28;20050;-82
2022/10/15 07:27:59;;;;;;;14.75;11.93;;;;;;;13.70;100.00;100115.41;5012223;28;20084;-81
2022/10/15 07:30:27;;;;;;;17.02;13.30;;;;;;;13.72;100.00;100110.84;4995518;28;20042;-81
2022/10/15 07:32:56;;;;;;;14.98;12.25;;;;;;;13.71;100.00;100106.50;5027957;28;20066;-80
2022/10/15 07:35:24;;;;;;;19.67;14.05;;;;;;;13.75;100.00;100100.03;5009472;28;20042;-82
2022/10/15 07:37:52;;;;;;;15.98;12.98;;;;;;;13.79;100.00;100105.91;5028288;28;20065;-82
2022/10/15 07:40:19;;;;;;;17.95;12.45;;;;;;;13.82;100.00;100095.06;5015050;28;20062;-82
2022/10/15 07:42:54;;;;;;;17.80;14.20;;;;;;;13.83;100.00;100102.06;5023512;28;20054;-82
2022/10/15 07:45:22;;;;;;;15.15;13.20;;;;;;;13.86;100.00;100107.91;4999127;28;20510;-82
2022/10/15 07:47:50;;;;;;;20.75;11.77;;;;;;;13.92;100.00;100106.59;5010599;28;20046;-81
2022/10/15 07:50:18;;;;;;;14.85;11.43;;;;;;;14.03;100.00;100103.06;4996107;28;20041;-82
2022/10/15 07:52:46;;;;;;;17.55;11.45;;;;;;;14.14;100.00;100103.88;5002316;28;20052;-82
2022/10/15 07:55:13;;;;;;;14.88;11.73;;;;;;;14.20;100.00;100102.53;5001952;28;20053;-82
2022/10/15 07:57:41;;;;;;;15.27;11.98;;;;;;;14.29;100.00;100098.28;5011516;28;20053;-82
2022/10/15 08:00:08;;;;;;;12.75;10.93;;;;;;;14.36;100.00;100092.38;5016005;28;20049;-81
2022/10/15 08:02:36;;;;;;;12.70;10.57;;;;;;;14.41;100.00;100098.13;5014820;28;20129;-83
2022/10/15 08:05:04;;;;;;;14.95;10.98;;;;;;;14.46;100.00;100100.38;5033205;28;20050;-81
2022/10/15 08:07:32;;;;;;;14.52;10.45;;;;;;;14.51;100.00;100097.38;5014381;28;20022;-82
2022/10/15 08:09:59;;;;;;;13.55;11.07;;;;;;;14.56;100.00;100103.13;5008241;28;20046;-82
2022/10/15 08:12:27;;;;;;;16.65;10.65;;;;;;;14.62;100.00;100103.44;5023699;28;20057;-82
2022/10/15 08:14:54;;;;;;;13.02;10.60;;;;;;;14.69;100.00;100104.63;4988000;28;20050;-83
2022/10/15 08:17:22;;;;;;;14.00;11.18;;;;;;;14.74;100.00;100106.03;5034734;28;20037;-83
2022/10/15 08:19:49;;;;;;;12.85;11.15;;;;;;;14.82;100.00;100109.72;5007388;28;20108;-82
2022/10/15 08:22:17;;;;;;;12.98;10.02;;;;;;;14.90;100.00;100115.22;5030740;28;20057;-82
2022/10/15 08:24:44;;;;;;;14.02;9.85;;;;;;;14.98;100.00;100114.53;5008229;28;20042;-82
2022/10/15 08:27:13;;;;;;;13.43;10.38;;;;;;;15.02;100.00;100123.91;5020555;28;20054;-81
2022/10/15 08:29:40;;;;;;;16.08;10.68;;;;;;;15.09;100.00;100119.78;4987419;28;20069;-82
2022/10/15 08:32:08;;;;;;;15.23;10.23;;;;;;;15.14;100.00;100119.38;5020022;28;20045;-83
2022/10/15 08:34:36;;;;;;;12.00;9.32;;;;;;;15.21;100.00;100120.50;5005778;28;20080;-82
2022/10/15 08:37:03;;;;;;;14.45;10.50;;;;;;;15.29;100.00;100127.81;4992285;28;20049;-83
2022/10/15 08:39:31;;;;;;;12.65;10.70;;;;;;;15.37;100.00;100128.00;5006487;28;20065;-80
2022/10/15 08:42:04;;;;;;;16.63;10.57;;;;;;;15.44;100.00;100130.00;4987503;28;20046;-81
2022/10/15 08:44:44;;;;;;;12.77;9.90;;;;;;;15.52;100.00;100133.78;4984292;28;20116;-81
2022/10/15 08:47:46;;;;;;;10.93;9.45;;;;;;;15.51;100.00;100127.63;5021572;28;20068;-81
2022/10/15 08:50:40;;;;;;;11.90;9.82;;;;;;;15.55;100.00;100131.69;5014858;28;20065;-81
2022/10/15 08:53:13;;;;;;;10.48;8.20;;;;;;;15.63;100.00;100121.25;5015715;28;20107;-82
2022/10/15 08:55:43;;;;;;;14.43;9.75;;;;;;;15.71;100.00;100125.91;5022600;28;20042;-82
2022/10/15 08:58:29;;;;;;;10.73;8.20;;;;;;;15.77;100.00;100129.84;5033892;28;20057;-82
2022/10/15 09:01:23;;;;;;;9.93;8.90;;;;;;;15.78;100.00;100136.81;5017542;28;20092;-82
2022/10/15 09:04:02;;;;;;;10.68;8.95;;;;;;;15.77;100.00;100137.81;5000734;28;20046;-82
2022/10/15 09:06:34;;;;;;;9.68;7.93;;;;;;;15.82;100.00;100135.59;5017590;28;20085;-82
2022/10/15 09:09:29;;;;;;;10.60;9.15;;;;;;;15.88;100.00;100143.00;5008549;28;20045;-82
2022/10/15 09:12:36;;;;;;;17.70;10.25;;;;;;;15.88;99.61;100150.97;5025208;28;20110;-81
2022/10/15 09:15:11;;;;;;;13.45;10.93;;;;;;;15.87;99.34;100150.13;5015518;28;20562;-84
2022/10/15 09:17:50;;;;;;;12.70;10.30;;;;;;;15.88;98.50;100143.00;5011944;28;20038;-80
2022/10/15 09:20:38;;;;;;;13.35;10.93;;;;;;;15.86;98.07;100148.44;5021125;28;20042;-80
2022/10/15 09:23:17;;;;;;;13.30;10.40;;;;;;;15.88;98.70;100141.16;5016406;28;20049;-80
2022/10/15 09:25:49;;;;;;;12.27;10.27;;;;;;;15.90;98.50;100147.19;5031831;28;20054;-82
2022/10/15 09:28:19;;;;;;;12.63;9.15;;;;;;;15.97;98.69;100142.16;5004135;28;20057;-82
2022/10/15 09:30:50;;;;;;;14.00;9.65;;;;;;;16.06;98.69;100140.50;5016298;28;20046;-82
2022/10/15 09:33:40;;;;;;;10.93;7.68;;;;;;;16.14;98.40;100141.50;5014930;28;20072;-83
2022/10/15 09:36:14;;;;;;;10.90;8.68;;;;;;;16.22;97.86;100142.66;4995322;28;20406;-82
2022/10/15 09:38:44;;;;;;;11.75;9.00;;;;;;;16.24;97.57;100146.00;5023177;28;20076;-81
2022/10/15 09:41:31;;;;;;;11.70;9.40;;;;;;;16.29;97.61;100144.59;5017327;28;20099;-81
2022/10/15 09:44:00;;;;;;;10.75;9.40;;;;;;;16.34;96.22;100144.16;5020474;28;20056;-82
2022/10/15 09:46:32;;;;;;;8.95;8.00;;;;;;;16.43;96.07;100143.34;5012972;28;20049;-81
2022/10/15 09:48:59;;;;;;;10.98;9.60;;;;;;;16.46;96.15;100146.56;4994330;28;20050;-82
2022/10/15 09:52:06;;;;;;;11.30;9.27;;;;;;;16.54;95.38;100145.03;5023853;28;20050;-82
2022/10/15 09:55:09;;;;;;;11.00;8.85;;;;;;;16.72;95.08;100148.69;5005746;28;20062;-82
2022/10/15 09:57:38;;;;;;;9.35;8.32;;;;;;;16.92;93.18;100137.03;5033014;28;20053;-83
2022/10/15 10:00:12;;;;;;;11.77;8.82;;;;;;;17.12;92.41;100147.63;4990666;28;20050;-82
2022/10/15 10:02:40;;;;;;;10.02;7.30;;;;;;;17.21;91.72;100147.59;5033900;28;20083;-82
2022/10/15 10:05:37;;;;;;;7.90;7.03;;;;;;;17.27;90.51;100156.00;4988950;28;20076;-82
2022/10/15 10:08:30;;;;;;;7.30;6.40;;;;;;;17.36;89.85;100147.97;4997069;28;20512;-83
2022/10/15 10:11:00;;;;;;;12.05;7.60;;;;;;;17.38;89.73;100155.78;5033900;28;20045;-81
2022/10/15 10:13:38;;;;;;;7.97;6.85;;;;;;;17.34;87.78;100154.44;5002057;28;20100;-82
2022/10/15 10:16:09;;;;;;;7.47;6.50;;;;;;;17.26;86.61;100162.31;5028214;28;20479;-82
2022/10/15 10:18:37;;;;;;;5.95;5.35;;;;;;;17.20;88.22;100161.03;5007524;28;20048;-81
2022/10/15 10:21:29;;;;;;;8.68;6.00;;;;;;;17.18;88.71;100163.84;5041631;28;20100;-80
2022/10/15 10:24:18;;;;;;;7.78;6.97;;;;;;;17.18;88.87;100171.81;5013355;28;20046;-82
2022/10/15 10:26:46;;;;;;;6.75;5.90;;;;;;;17.13;88.04;100168.75;5032972;28;20072;-81
2022/10/15 10:29:21;;;;;;;6.80;5.47;;;;;;;17.17;88.50;100164.84;5018905;28;20167;-82
2022/10/15 10:32:26;;;;;;;5.70;4.78;;;;;;;17.23;88.91;100166.06;5027206;28;20071;-82
2022/10/15 10:34:53;;;;;;;9.25;5.78;;;;;;;17.28;89.14;100166.47;4995572;28;20052;-82
2022/10/15 10:37:21;;;;;;;6.63;5.78;;;;;;;17.34;88.77;100165.91;5035092;28;20119;-80
2022/10/15 10:39:57;;;;;;;7.03;4.93;;;;;;;17.29;88.03;100157.53;5023681;28;20042;-79
2022/10/15 10:42:33;;;;;;;5.35;4.82;;;;;;;17.33;87.99;100166.88;5004758;28;20142;-79
2022/10/15 10:45:17;;;;;;;7.43;5.15;;;;;;;17.29;87.56;100157.53;5019224;28;20077;-79
2022/10/15 10:47:45;;;;;;;8.68;5.00;;;;;;;17.34;87.50;100162.41;5035355;28;20044;-80
2022/10/15 10:50:31;;;;;;;6.57;4.65;;;;;;;17.38;86.77;100161.13;5028079;28;20109;-80
2022/10/15 10:53:35;;;;;;;7.57;5.18;;;;;;;17.31;86.49;100158.22;5006625;28;20046;-80
2022/10/15 10:56:04;;;;;;;11.43;6.35;;;;;;;17.34;86.75;100165.06;4975233;28;20460;-81
2022/10/15 10:58:32;;;;;;;6.50;4.68;;;;;;;17.39;87.72;100161.00;5007331;28;20112;-81
2022/10/15 11:01:00;;;;;;;5.88;5.20;;;;;;;17.35;86.26;100166.75;5001569;28;20076;-82
2022/10/15 11:03:36;;;;;;;5.18;4.25;;;;;;;17.34;86.65;100163.25;4990219;28;20092;-81
2022/10/15 11:06:06;;;;;;;6.05;5.15;;;;;;;17.34;85.64;100168.56;5010334;28;20065;-82
2022/10/15 11:08:46;;;;;;;6.32;4.68;;;;;;;17.25;86.30;100163.28;5012921;28;20096;-82
2022/10/15 11:11:23;;;;;;;6.65;5.47;;;;;;;17.18;86.42;100161.19;5029183;28;20053;-81
2022/10/15 11:14:16;;;;;;;6.13;4.13;;;;;;;17.25;87.29;100157.97;5025846;28;20124;-82
2022/10/15 11:16:57;;;;;;;6.10;4.75;;;;;;;17.29;87.17;100159.31;5004182;28;20057;-83
2022/10/15 11:19:37;;;;;;;6.18;4.90;;;;;;;17.36;87.22;100157.78;5014274;28;20220;-83
2022/10/15 11:22:27;;;;;;;6.95;5.72;;;;;;;17.44;86.63;100168.53;5009181;28;20053;-83
2022/10/15 11:25:27;;;;;;;5.32;4.82;;;;;;;17.43;87.40;100166.88;5027336;28;20029;-82
2022/10/15 11:28:06;;;;;;;5.53;4.28;;;;;;;17.50;86.64;100156.47;5036305;28;20080;-81
2022/10/15 11:31:05;;;;;;;5.28;4.78;;;;;;;17.58;84.88;100162.72;5009027;28;20056;-82